Time;durP1;ratioP1;P1;durP2;ratioP2;P2;SDS_P1;SDS_P2;PMS_P1;PMS_P2;Temp;Humidity;BMP_temperature;BMP_pressure;BME280_temperature;BME280_humidity;BME280_pressure;Samples;Min_cycle;Max_cycle;Signal;HPM_P1;HPM_P2
2023/06/01 00:00:15;;;;;;;10.02;3.40;;;;;;;16.24;69.36;98885.34;4483952;31;20096;-68
2023/06/01 00:02:43;;;;;;;6.20;2.50;;;;;;;16.04;70.83;98881.47;4484034;31;20085;-68
2023/06/01 00:05:10;;;;;;;6.87;2.70;;;;;;;16.02;69.88;98883.44;4484230;31;20104;-68
2023/06/01 00:07:37;;;;;;;8.05;2.85;;;;;;;16.03;68.60;98882.44;4484077;31;20097;-68
2023/06/01 00:10:05;;;;;;;5.82;3.20;;;;;;;16.10;67.92;98880.78;4483930;32;20149;-68
2023/06/01 00:12:32;;;;;;;10.27;3.08;;;;;;;16.10;68.68;98886.06;4479438;32;20105;-68
2023/06/01 00:15:00;;;;;;;5.72;2.85;;;;;;;16.11;67.68;98872.69;4469705;32;20122;-68
2023/06/01 00:17:28;;;;;;;5.68;3.00;;;;;;;16.11;67.73;98872.69;4484022;32;20110;-68
2023/06/01 00:19:56;;;;;;;5.62;2.65;;;;;;;16.09;67.53;98868.56;4483633;31;20123;-68
2023/06/01 00:22:23;;;;;;;6.65;3.15;;;;;;;16.05;69.10;98868.06;4483665;32;20116;-68
2023/06/01 00:24:51;;;;;;;6.78;2.85;;;;;;;16.04;68.96;98868.25;4485689;32;20123;-68
2023/06/01 00:27:18;;;;;;;8.23;2.95;;;;;;;16.05;70.16;98868.06;4486090;32;20643;-68
2023/06/01 00:29:45;;;;;;;9.75;3.00;;;;;;;16.00;70.12;98862.47;4485832;32;20128;-68
2023/06/01 00:32:13;;;;;;;5.53;2.97;;;;;;;15.98;70.16;98861.00;4485872;32;20089;-67
2023/06/01 00:34:40;;;;;;;6.12;3.22;;;;;;;15.98;70.03;98861.81;4485809;32;20108;-68
2023/06/01 00:37:07;;;;;;;7.82;2.78;;;;;;;15.99;70.53;98866.13;4485800;31;20096;-68
2023/06/01 00:39:35;;;;;;;5.55;2.85;;;;;;;15.97;69.95;98865.44;4485745;31;20122;-68
2023/06/01 00:42:02;;;;;;;7.50;2.80;;;;;;;15.98;69.66;98861.81;4485821;32;20473;-68
2023/06/01 00:44:30;;;;;;;4.80;2.50;;;;;;;15.94;69.73;98865.78;4485715;32;20449;-68
2023/06/01 00:46:59;;;;;;;6.68;3.25;;;;;;;15.93;70.25;98867.59;4485834;31;20116;-68
2023/06/01 00:49:26;;;;;;;6.97;2.67;;;;;;;15.93;70.30;98864.16;4484463;32;20145;-68
2023/06/01 00:51:54;;;;;;;8.10;2.40;;;;;;;15.92;69.84;98858.03;4485818;31;20453;-68
2023/06/01 00:54:21;;;;;;;6.45;2.37;;;;;;;15.87;69.90;98859.53;4485729;31;20516;-68
2023/06/01 00:56:49;;;;;;;7.10;2.70;;;;;;;15.85;69.65;98858.88;4485997;32;20107;-68
2023/06/01 00:59:16;;;;;;;4.53;2.80;;;;;;;15.81;69.94;98860.22;4485676;31;20080;-68
2023/06/01 01:01:43;;;;;;;5.87;3.03;;;;;;;15.79;70.83;98858.56;4485973;31;20156;-67
2023/06/01 01:04:13;;;;;;;6.00;2.42;;;;;;;15.72;71.90;98854.91;4485697;32;20445;-68
2023/06/01 01:07:06;;;;;;;7.07;2.85;;;;;;;15.73;71.67;98853.09;4485664;31;20489;-68
2023/06/01 01:09:33;;;;;;;7.68;2.60;;;;;;;15.71;71.71;98852.44;4485653;31;20087;-68
2023/06/01 01:12:04;;;;;;;10.30;3.37;;;;;;;15.65;72.71;98851.28;4484902;31;20104;-68
2023/06/01 01:14:38;;;;;;;5.82;3.20;;;;;;;15.66;72.58;98852.94;4468649;32;20123;-68
2023/06/01 01:17:10;;;;;;;6.57;2.58;;;;;;;15.63;73.22;98852.47;4453554;32;21035;-68
2023/06/01 01:19:42;;;;;;;5.97;3.50;;;;;;;15.61;73.24;98853.44;4453347;32;20700;-68
2023/06/01 01:22:11;;;;;;;;;;;;;;;15.60;73.67;98854.44;4454685;32;20398;-68
2023/06/01 01:25:21;;;;;;;4.18;2.25;;;;;;;15.55;74.23;98846.19;4454218;32;20476;-68
2023/06/01 01:28:14;;;;;;;10.27;3.12;;;;;;;15.49;74.44;98848.66;4448642;32;20097;-68
2023/06/01 01:30:42;;;;;;;5.78;3.03;;;;;;;15.50;75.33;98847.69;4452898;32;20097;-67
2023/06/01 01:33:10;;;;;;;6.45;2.85;;;;;;;15.41;75.94;98845.06;4454285;32;20097;-68
2023/06/01 01:35:38;;;;;;;4.43;2.80;;;;;;;15.37;75.99;98848.19;4453770;32;20415;-68
2023/06/01 01:38:06;;;;;;;4.85;3.12;;;;;;;15.34;76.54;98846.72;4453118;32;20084;-68
2023/06/01 01:40:33;;;;;;;11.12;3.30;;;;;;;15.34;76.58;98852.00;4454054;32;20547;-68
2023/06/01 01:43:00;;;;;;;8.07;3.00;;;;;;;15.33;77.12;98845.06;4454574;32;20094;-68
2023/06/01 01:45:28;;;;;;;5.18;2.83;;;;;;;15.37;76.46;98842.91;4454154;32;20432;-68
2023/06/01 01:48:11;;;;;;;6.03;3.35;;;;;;;15.34;77.00;98849.34;4454241;32;20080;-68
2023/06/01 01:50:50;;;;;;;5.22;2.85;;;;;;;15.34;77.06;98846.72;4454353;32;20171;-67
2023/06/01 01:53:17;;;;;;;9.02;3.37;;;;;;;15.33;76.29;98847.69;4453287;32;20097;-67
2023/06/01 01:55:46;;;;;;;8.45;2.85;;;;;;;15.35;76.26;98845.72;4452996;32;20112;-68
2023/06/01 01:58:13;;;;;;;7.90;2.83;;;;;;;15.34;75.94;98841.44;4452942;32;20093;-68
2023/06/01 02:00:43;;;;;;;6.15;3.12;;;;;;;15.29;76.87;98849.03;4453861;32;20081;-67
2023/06/01 02:03:17;;;;;;;7.37;2.95;;;;;;;15.25;77.34;98839.78;4452858;32;20795;-68
2023/06/01 02:05:45;;;;;;;8.32;3.12;;;;;;;15.22;77.68;98840.13;4454139;32;20119;-68
2023/06/01 02:08:13;;;;;;;5.30;3.00;;;;;;;15.16;78.27;98838.97;4454366;32;20115;-68
2023/06/01 02:10:41;;;;;;;4.90;2.83;;;;;;;15.16;78.05;98832.88;4454265;32;20148;-68
2023/06/01 02:13:09;;;;;;;4.45;2.80;;;;;;;15.21;77.83;98841.09;4462379;32;20096;-67
2023/06/01 02:15:37;;;;;;;4.57;3.03;;;;;;;15.19;77.31;98835.97;4475216;32;20126;-67
2023/06/01 02:18:04;;;;;;;6.15;2.78;;;;;;;15.20;77.55;98826.25;4485530;32;20187;-68
2023/06/01 02:20:31;;;;;;;5.07;2.60;;;;;;;15.20;76.95;98840.28;4485481;32;20129;-68
2023/06/01 02:22:59;;;;;;;5.72;2.80;;;;;;;15.16;76.47;98836.31;4485337;32;20492;-67
2023/06/01 02:25:26;;;;;;;7.20;3.00;;;;;;;15.20;75.47;98826.25;4485066;32;20156;-68
2023/06/01 02:27:53;;;;;;;9.25;2.83;;;;;;;15.27;74.75;98827.25;4485131;32;20103;-68
2023/06/01 02:30:21;;;;;;;7.95;3.00;;;;;;;15.25;74.48;98823.94;4485083;32;20104;-68
2023/06/01 02:32:49;;;;;;;6.32;2.78;;;;;;;15.24;74.88;98824.94;4485151;32;20160;-67
2023/06/01 02:35:16;;;;;;;4.57;2.47;;;;;;;15.19;74.77;98825.44;4485393;32;20502;-68
2023/06/01 02:37:43;;;;;;;4.90;2.40;;;;;;;15.20;74.66;98821.81;4485113;32;20099;-68
2023/06/01 02:40:12;;;;;;;11.38;2.60;;;;;;;15.21;74.25;98823.44;4485264;32;20153;-68
2023/06/01 02:42:39;;;;;;;6.43;2.80;;;;;;;15.21;73.83;98817.34;4485409;31;20084;-67
2023/06/01 02:45:08;;;;;;;5.90;2.53;;;;;;;15.19;73.43;98819.34;4485314;32;20200;-68
2023/06/01 02:47:35;;;;;;;5.12;2.85;;;;;;;15.16;73.83;98817.03;4485046;31;20546;-68
2023/06/01 02:50:04;;;;;;;8.20;2.70;;;;;;;15.14;73.75;98822.47;4485061;32;20092;-68
2023/06/01 02:52:33;;;;;;;8.80;2.50;;;;;;;15.18;73.33;98812.41;4484993;31;20343;-67
2023/06/01 02:55:00;;;;;;;4.93;2.62;;;;;;;15.19;73.79;98819.34;4485001;32;20160;-68
2023/06/01 02:57:29;;;;;;;6.05;2.45;;;;;;;15.17;73.29;98823.94;4485312;31;20114;-68
2023/06/01 02:59:56;;;;;;;4.62;2.25;;;;;;;15.21;73.17;98814.72;4484959;32;20180;-67
2023/06/01 03:02:23;;;;;;;5.20;3.05;;;;;;;15.25;72.51;98821.31;4485155;32;20148;-67
2023/06/01 03:04:50;;;;;;;3.22;2.10;;;;;;;15.22;72.42;98824.28;4484817;32;20461;-68
2023/06/01 03:07:18;;;;;;;4.40;2.45;;;;;;;15.21;73.21;98827.91;4484936;32;20100;-68
2023/06/01 03:09:46;;;;;;;6.18;2.80;;;;;;;15.20;73.25;98820.97;4485124;31;20076;-67
2023/06/01 03:12:13;;;;;;;6.05;2.20;;;;;;;15.25;72.58;98818.66;4482537;32;20145;-68
2023/06/01 03:14:41;;;;;;;3.83;2.40;;;;;;;15.23;73.05;98820.63;4469220;32;20097;-67
2023/06/01 03:17:09;;;;;;;7.82;2.62;;;;;;;15.22;73.13;98825.09;4484424;32;20183;-67
2023/06/01 03:19:36;;;;;;;6.68;2.83;;;;;;;15.24;73.22;98827.56;4485040;32;20498;-67
2023/06/01 03:22:03;;;;;;;7.85;2.58;;;;;;;15.27;72.29;98820.13;4484723;32;20437;-67
2023/06/01 03:24:32;;;;;;;7.00;2.72;;;;;;;15.38;72.15;98821.63;4484689;31;20131;-67
2023/06/01 03:26:59;;;;;;;4.53;2.60;;;;;;;15.50;71.39;98819.44;4484779;31;20088;-68
2023/06/01 03:29:26;;;;;;;6.18;2.50;;;;;;;15.58;71.27;98822.09;4484731;31;20385;-67
2023/06/01 03:31:54;;;;;;;7.15;2.87;;;;;;;15.66;70.31;98823.91;4484567;32;20195;-68
2023/06/01 03:34:22;;;;;;;3.40;2.40;;;;;;;15.83;69.24;98823.88;4484653;31;20100;-68
2023/06/01 03:36:49;;;;;;;5.22;2.78;;;;;;;15.95;68.63;98818.06;4484233;32;20092;-68
2023/06/01 03:39:17;;;;;;;6.40;2.33;;;;;;;16.02;68.18;98820.84;4484551;32;20092;-67
2023/06/01 03:41:44;;;;;;;4.20;2.55;;;;;;;16.08;67.69;98824.63;4484308;32;20111;-68
2023/06/01 03:44:12;;;;;;;8.98;2.25;;;;;;;16.12;67.44;98829.41;4484298;31;20115;-67
2023/06/01 03:46:40;;;;;;;5.62;2.28;;;;;;;16.17;68.14;98825.41;4484523;31;20114;-68
2023/06/01 03:49:07;;;;;;;4.50;2.50;;;;;;;16.28;67.79;98819.75;4484181;31;20140;-67
2023/06/01 03:51:35;;;;;;;7.55;2.53;;;;;;;16.32;66.82;98821.03;4484280;31;20089;-68
2023/06/01 03:54:03;;;;;;;9.45;2.22;;;;;;;16.40;67.04;98818.38;4484223;32;20088;-68
2023/06/01 03:56:30;;;;;;;7.00;2.35;;;;;;;16.42;66.94;98810.25;4483990;32;20110;-68
2023/06/01 03:58:58;;;;;;;9.02;2.67;;;;;;;16.44;66.96;98819.69;4485458;32;20194;-67
2023/06/01 04:01:29;;;;;;;7.90;2.22;;;;;;;16.47;66.89;98816.69;4486117;31;20096;-67
2023/06/01 04:03:56;;;;;;;9.50;2.67;;;;;;;16.57;67.46;98818.28;4486106;31;20144;-67
2023/06/01 04:06:24;;;;;;;15.18;2.87;;;;;;;16.62;67.18;98815.91;4486269;32;20149;-67
2023/06/01 04:08:55;;;;;;;5.47;2.30;;;;;;;16.70;67.72;98818.53;4486282;31;20189;-67
2023/06/01 04:11:23;;;;;;;4.03;2.20;;;;;;;16.76;66.80;98819.63;4486108;31;20474;-68
2023/06/01 04:13:50;;;;;;;3.08;2.37;;;;;;;16.90;65.75;98813.63;4473287;32;20570;-68
2023/06/01 04:16:18;;;;;;;6.40;2.50;;;;;;;17.04;65.19;98819.97;4480706;32;20109;-68
2023/06/01 04:18:45;;;;;;;6.30;2.40;;;;;;;17.14;65.29;98820.56;4485969;31;20105;-68
2023/06/01 04:21:13;;;;;;;7.07;2.62;;;;;;;17.26;65.45;98820.13;4486136;32;20115;-68
2023/06/01 04:23:42;;;;;;;4.97;2.70;;;;;;;17.37;64.47;98817.03;4485940;32;20287;-68
2023/06/01 04:26:11;;;;;;;9.07;2.75;;;;;;;17.43;64.54;98818.97;4486278;31;20088;-68
2023/06/01 04:28:45;;;;;;;6.90;3.33;;;;;;;17.65;63.06;98821.72;4486277;31;20110;-69
2023/06/01 04:31:19;;;;;;;5.65;2.50;;;;;;;17.73;61.08;98819.81;4477999;31;20501;-70
2023/06/01 04:33:53;;;;;;;10.95;2.75;;;;;;;17.89;62.25;98824.12;4468930;32;20093;-69
2023/06/01 04:36:22;;;;;;;10.60;2.47;;;;;;;17.97;59.93;98819.75;4469316;32;20450;-70
2023/06/01 04:38:53;;;;;;;12.02;3.03;;;;;;;18.18;60.31;98821.66;4469311;32;20093;-70
2023/06/01 04:41:21;;;;;;;9.05;2.45;;;;;;;18.24;59.71;98827.06;4467188;32;20454;-70
2023/06/01 04:43:53;;;;;;;12.75;2.65;;;;;;;18.43;59.58;98824.84;4468873;32;20183;-70
2023/06/01 04:46:26;;;;;;;6.45;2.37;;;;;;;18.42;58.74;98833.78;4469203;32;20435;-70
2023/06/01 04:48:57;;;;;;;8.88;2.78;;;;;;;18.55;57.30;98833.13;4468755;32;20084;-69
2023/06/01 04:51:26;;;;;;;9.48;2.22;;;;;;;18.61;57.32;98833.19;4458413;32;20442;-70
2023/06/01 04:53:54;;;;;;;9.63;2.37;;;;;;;18.89;57.75;98835.13;4468422;32;20093;-68
2023/06/01 04:56:29;;;;;;;8.57;2.45;;;;;;;18.94;58.19;98832.75;4469718;32;20164;-70
2023/06/01 04:58:57;;;;;;;8.73;2.60;;;;;;;18.96;56.90;98836.03;4469606;32;20107;-70
2023/06/01 05:01:26;;;;;;;12.50;2.65;;;;;;;19.24;57.34;98832.63;4466638;32;20119;-70
2023/06/01 05:03:56;;;;;;;6.75;2.72;;;;;;;19.07;55.86;98834.69;4469339;32;20143;-69
2023/06/01 05:06:25;;;;;;;10.40;2.97;;;;;;;19.29;56.22;98835.50;4470625;32;20164;-70
2023/06/01 05:08:52;;;;;;;14.10;3.22;;;;;;;19.35;54.67;98831.28;4463227;32;20088;-69
2023/06/01 05:11:21;;;;;;;4.28;2.30;;;;;;;19.45;54.73;98834.37;4462956;32;20124;-70
2023/06/01 05:13:50;;;;;;;8.70;2.58;;;;;;;19.63;54.69;98830.44;4468449;32;20117;-70
2023/06/01 05:16:18;;;;;;;7.72;2.80;;;;;;;19.67;54.34;98837.03;4471814;32;20160;-70
2023/06/01 05:18:46;;;;;;;18.42;2.62;;;;;;;19.68;52.77;98838.62;4464276;31;20430;-69
2023/06/01 05:21:14;;;;;;;19.30;3.22;;;;;;;19.82;54.70;98840.41;4467831;31;20112;-69
2023/06/01 05:23:41;;;;;;;8.15;2.65;;;;;;;19.89;53.57;98840.44;4467174;31;20100;-69
2023/06/01 05:26:08;;;;;;;10.65;2.58;;;;;;;19.92;54.87;98841.91;4465288;32;20109;-69
2023/06/01 05:28:36;;;;;;;28.90;3.25;;;;;;;20.01;52.04;98844.19;4468950;32;20187;-69
2023/06/01 05:31:03;;;;;;;5.62;2.97;;;;;;;19.89;51.11;98836.97;4459028;32;20151;-69
2023/06/01 05:33:32;;;;;;;14.55;2.87;;;;;;;19.81;50.42;98841.41;4461361;32;20115;-69
2023/06/01 05:36:01;;;;;;;22.23;3.15;;;;;;;19.90;51.63;98842.09;4462093;32;20093;-69
2023/06/01 05:38:28;;;;;;;4.53;1.92;;;;;;;19.88;52.75;98840.63;4466397;32;20101;-69
2023/06/01 05:40:56;;;;;;;12.80;2.55;;;;;;;20.05;51.10;98843.81;4469374;31;20133;-69
2023/06/01 05:43:24;;;;;;;18.15;3.78;;;;;;;20.13;51.55;98836.47;4468250;32;20156;-68
2023/06/01 05:45:51;;;;;;;16.20;4.45;;;;;;;20.29;52.04;98845.16;4465509;32;20100;-68
2023/06/01 05:48:19;;;;;;;9.35;2.70;;;;;;;20.28;54.99;98840.84;4463768;32;20143;-69
2023/06/01 05:50:47;;;;;;;9.02;2.53;;;;;;;20.32;54.48;98845.56;4468148;32;20157;-69
2023/06/01 05:53:14;;;;;;;19.33;3.53;;;;;;;20.21;49.43;98844.31;4466138;32;20468;-69
2023/06/01 05:55:42;;;;;;;13.23;3.83;;;;;;;20.27;51.71;98840.00;4464930;32;20109;-69
2023/06/01 05:58:10;;;;;;;11.23;2.45;;;;;;;20.38;52.33;98844.78;4465686;32;20466;-69
2023/06/01 06:00:37;;;;;;;27.20;3.67;;;;;;;20.48;51.43;98848.91;4465739;32;20481;-70
2023/06/01 06:03:05;;;;;;;16.40;2.80;;;;;;;20.63;53.56;98848.75;4455077;32;20132;-69
2023/06/01 06:05:32;;;;;;;7.47;2.35;;;;;;;20.79;52.94;98842.25;4467920;32;20115;-69
2023/06/01 06:08:00;;;;;;;19.42;2.67;;;;;;;20.72;53.32;98844.91;4457672;32;20169;-69
2023/06/01 06:10:28;;;;;;;10.25;2.20;;;;;;;20.77;51.37;98841.66;4460129;32;20105;-68
2023/06/01 06:13:00;;;;;;;13.82;2.80;;;;;;;20.78;51.96;98848.63;4461785;32;20100;-69
2023/06/01 06:15:29;;;;;;;14.13;3.50;;;;;;;20.98;54.46;98852.13;4461710;32;20446;-69
2023/06/01 06:17:56;;;;;;;13.95;3.08;;;;;;;20.87;51.37;98848.22;4461818;32;20120;-70
2023/06/01 06:20:25;;;;;;;4.78;2.55;;;;;;;20.97;51.80;98847.00;4464082;32;20124;-70
2023/06/01 06:22:53;;;;;;;7.30;2.58;;;;;;;20.77;51.96;98846.97;4461764;32;20175;-70
2023/06/01 06:25:20;;;;;;;25.10;3.05;;;;;;;20.87;52.65;98848.22;4461170;32;20499;-69
2023/06/01 06:27:48;;;;;;;33.88;6.28;;;;;;;21.01;49.49;98848.25;4460491;32;20143;-69
2023/06/01 06:30:15;;;;;;;8.00;2.75;;;;;;;20.85;48.75;98849.47;4455574;32;20164;-70
2023/06/01 06:32:42;;;;;;;10.50;2.15;;;;;;;21.09;51.28;98848.06;4461744;32;20076;-69
2023/06/01 06:35:12;;;;;;;10.43;2.72;;;;;;;21.20;50.06;98849.31;4461661;32;20113;-70
2023/06/01 06:37:41;;;;;;;8.15;2.67;;;;;;;21.38;49.34;98851.38;4460242;32;20113;-70
2023/06/01 06:40:09;;;;;;;6.62;2.33;;;;;;;21.41;51.08;98848.28;4462083;32;20937;-70
2023/06/01 06:42:36;;;;;;;11.60;2.70;;;;;;;21.33;48.06;98851.16;4461013;32;20120;-70
2023/06/01 06:45:05;;;;;;;6.78;2.65;;;;;;;21.39;49.21;98851.16;4459455;32;20089;-70
2023/06/01 06:47:32;;;;;;;11.43;3.03;;;;;;;21.49;52.24;98855.25;4462206;32;20127;-69
2023/06/01 06:49:59;;;;;;;14.93;2.80;;;;;;;21.62;48.38;98845.44;4461008;32;20160;-69
2023/06/01 06:52:27;;;;;;;4.80;2.37;;;;;;;21.65;48.74;98846.88;4461287;32;20112;-69
2023/06/01 06:54:54;;;;;;;4.07;2.70;;;;;;;21.80;56.94;98847.44;4463940;32;20148;-69
2023/06/01 06:57:21;;;;;;;5.85;2.70;;;;;;;21.90;55.23;98846.19;4457641;32;20424;-68
2023/06/01 06:59:49;;;;;;;5.30;2.47;;;;;;;22.00;53.20;98849.25;4463373;32;20128;-67
2023/06/01 07:02:16;;;;;;;11.85;2.28;;;;;;;22.01;50.77;98844.72;4458560;32;20134;-68
2023/06/01 07:04:43;;;;;;;8.73;2.92;;;;;;;22.22;54.88;98848.97;4459128;32;20088;-67
2023/06/01 07:07:11;;;;;;;8.73;2.75;;;;;;;22.03;54.79;98843.50;4459677;32;20142;-68
2023/06/01 07:09:38;;;;;;;11.65;2.97;;;;;;;22.21;54.15;98850.00;4455145;32;20188;-69
2023/06/01 07:12:05;;;;;;;6.62;2.75;;;;;;;22.35;54.82;98853.47;4460181;32;20174;-68
2023/06/01 07:14:34;;;;;;;12.45;3.35;;;;;;;22.15;50.87;98843.69;4463787;32;20791;-68
2023/06/01 07:17:01;;;;;;;6.55;2.90;;;;;;;22.02;54.92;98855.19;4458295;32;20080;-68
2023/06/01 07:19:35;;;;;;;6.82;2.60;;;;;;;22.10;49.99;98848.81;4462918;32;20116;-68
2023/06/01 07:22:02;;;;;;;8.43;2.55;;;;;;;22.26;51.95;98847.53;4461059;32;20107;-66
2023/06/01 07:24:30;;;;;;;11.10;3.05;;;;;;;22.38;50.77;98851.22;4463395;32;20139;-67
2023/06/01 07:26:57;;;;;;;7.18;2.50;;;;;;;22.58;49.94;98848.44;4460315;32;20123;-68
2023/06/01 07:29:26;;;;;;;4.57;2.53;;;;;;;22.49;47.38;98853.19;4463698;32;20109;-67
2023/06/01 07:31:53;;;;;;;29.63;3.45;;;;;;;22.60;55.35;98850.91;4460270;32;20517;-69
2023/06/01 07:34:21;;;;;;;6.65;2.60;;;;;;;22.69;53.45;98846.94;4459594;32;20122;-70
2023/06/01 07:36:50;;;;;;;5.97;2.70;;;;;;;22.70;50.33;98848.59;4460939;32;20085;-70
2023/06/01 07:39:21;;;;;;;6.90;2.37;;;;;;;22.86;53.04;98840.06;4457842;32;20796;-71
2023/06/01 07:41:50;;;;;;;8.98;2.40;;;;;;;22.77;51.81;98840.53;4457175;32;20108;-70
2023/06/01 07:44:18;;;;;;;6.65;2.50;;;;;;;22.83;50.55;98840.50;4460454;32;20100;-69
2023/06/01 07:46:45;;;;;;;7.32;2.75;;;;;;;22.82;50.95;98836.19;4464990;32;20096;-70
2023/06/01 07:49:14;;;;;;;15.40;2.90;;;;;;;22.82;45.52;98838.03;4461009;32;20132;-71
2023/06/01 07:51:42;;;;;;;9.90;2.30;;;;;;;22.96;50.45;98836.91;4461155;32;20481;-69
2023/06/01 07:54:10;;;;;;;6.87;2.60;;;;;;;23.04;50.41;98841.16;4461997;32;20101;-70
2023/06/01 07:56:37;;;;;;;9.85;2.87;;;;;;;23.35;55.09;98842.22;4459623;32;20143;-69
2023/06/01 07:59:04;;;;;;;7.55;2.70;;;;;;;23.55;52.89;98847.38;4460997;32;20108;-70
2023/06/01 08:01:32;;;;;;;5.28;2.58;;;;;;;23.69;51.43;98835.50;4457646;32;20101;-70
2023/06/01 08:04:01;;;;;;;11.25;4.03;;;;;;;23.67;45.76;98845.62;4462428;32;20167;-70
2023/06/01 08:06:35;;;;;;;7.10;2.95;;;;;;;23.45;44.46;98842.56;4457871;32;20172;-70
2023/06/01 08:09:02;;;;;;;6.78;2.83;;;;;;;23.26;47.66;98836.31;4458428;32;20100;-70
2023/06/01 08:11:30;;;;;;;6.43;2.40;;;;;;;23.52;50.20;98848.63;4460428;32;20116;-70
2023/06/01 08:13:59;;;;;;;10.10;2.87;;;;;;;23.75;48.75;98836.50;4455665;32;20152;-70
2023/06/01 08:16:27;;;;;;;4.70;2.50;;;;;;;23.83;52.27;98843.41;4463756;32;20117;-70
2023/06/01 08:18:56;;;;;;;10.88;2.58;;;;;;;23.97;52.24;98838.75;4457430;32;20114;-70
2023/06/01 08:21:24;;;;;;;7.43;2.72;;;;;;;24.03;46.94;98837.91;4458583;32;20154;-70
2023/06/01 08:23:55;;;;;;;7.78;2.25;;;;;;;23.96;47.93;98837.16;4463381;32;20461;-70
2023/06/01 08:26:23;;;;;;;9.52;2.72;;;;;;;23.76;55.03;98834.66;4460607;32;20076;-70
2023/06/01 08:28:53;;;;;;;5.82;2.65;;;;;;;23.71;45.56;98832.66;4459592;32;20097;-70
2023/06/01 08:31:22;;;;;;;13.43;2.47;;;;;;;23.77;50.47;98844.28;4459968;32;21877;-71
2023/06/01 08:33:50;;;;;;;4.90;2.62;;;;;;;23.78;49.57;98838.72;4455894;32;20092;-70
2023/06/01 08:36:19;;;;;;;11.60;3.33;;;;;;;24.09;48.62;98832.47;4458836;32;20097;-70
2023/06/01 08:38:48;;;;;;;9.38;2.65;;;;;;;24.25;48.14;98833.72;4460906;32;20165;-70
2023/06/01 08:41:37;;;;;;;6.70;2.55;;;;;;;24.33;48.36;98831.75;4460963;32;20118;-70
2023/06/01 08:44:08;;;;;;;6.55;2.50;;;;;;;24.13;54.32;98832.81;4459368;32;20122;-71
2023/06/01 08:46:35;;;;;;;3.10;2.30;;;;;;;24.25;54.15;98838.25;4461805;32;20157;-71
2023/06/01 08:49:02;;;;;;;13.95;2.78;;;;;;;24.45;51.19;98835.31;4462156;32;20104;-70
2023/06/01 08:51:33;;;;;;;5.12;2.37;;;;;;;24.54;44.81;98831.28;4459669;32;20814;-70
2023/06/01 08:54:00;;;;;;;6.18;2.60;;;;;;;24.77;48.76;98832.47;4458698;32;20123;-70
2023/06/01 08:56:30;;;;;;;5.22;2.60;;;;;;;24.72;50.54;98826.94;4456306;32;20779;-71
2023/06/01 08:58:58;;;;;;;7.82;3.12;;;;;;;24.46;45.34;98831.59;4458034;32;20428;-70
2023/06/01 09:01:25;;;;;;;12.37;2.83;;;;;;;24.34;48.26;98828.84;4451094;32;20912;-70
2023/06/01 09:03:53;;;;;;;5.87;2.10;;;;;;;24.71;50.70;98834.19;4459751;32;20139;-70
2023/06/01 09:06:21;;;;;;;8.50;2.75;;;;;;;24.79;51.82;98833.84;4464422;32;20139;-71
2023/06/01 09:08:49;;;;;;;5.95;2.92;;;;;;;24.90;43.62;98826.87;4460723;32;20161;-71
2023/06/01 09:11:17;;;;;;;7.65;2.80;;;;;;;25.06;42.61;98827.28;4459485;32;20209;-70
2023/06/01 09:13:44;;;;;;;11.88;2.75;;;;;;;25.03;40.49;98836.59;4457932;32;20511;-70
2023/06/01 09:16:12;;;;;;;7.87;2.53;;;;;;;25.15;47.43;98824.03;4461371;32;20524;-70
2023/06/01 09:18:55;;;;;;;7.18;2.85;;;;;;;25.23;46.09;98822.88;4463734;32;20108;-70
2023/06/01 09:21:22;;;;;;;8.23;2.97;;;;;;;25.34;45.63;98826.63;4462450;32;20529;-71
2023/06/01 09:23:49;;;;;;;4.72;2.60;;;;;;;25.32;45.27;98824.19;4463513;32;20096;-71
2023/06/01 09:26:17;;;;;;;9.77;3.15;;;;;;;25.50;40.92;98819.78;4461780;32;20124;-70
2023/06/01 09:28:52;;;;;;;8.73;2.80;;;;;;;25.32;40.51;98821.50;4465660;32;20103;-71
2023/06/01 09:31:41;;;;;;;6.18;3.28;;;;;;;25.46;45.14;98819.41;4460475;32;20458;-70
2023/06/01 09:34:18;;;;;;;4.15;2.50;;;;;;;25.53;44.58;98813.94;4460999;32;20178;-70
2023/06/01 09:36:56;;;;;;;5.85;2.78;;;;;;;25.54;43.82;98820.91;4463068;32;20119;-70
2023/06/01 09:39:24;;;;;;;6.85;2.60;;;;;;;25.43;41.18;98813.72;4461240;32;20189;-70
2023/06/01 09:41:54;;;;;;;6.12;3.10;;;;;;;25.44;42.01;98815.34;4459058;32;20127;-69
2023/06/01 09:44:28;;;;;;;7.85;3.08;;;;;;;25.50;42.85;98814.41;4462213;32;20108;-69
2023/06/01 09:47:00;;;;;;;5.45;2.60;;;;;;;25.32;42.70;98813.47;4461666;32;20132;-69
2023/06/01 09:49:30;;;;;;;5.78;2.55;;;;;;;25.22;40.19;98815.06;4462337;32;20161;-70
2023/06/01 09:52:18;;;;;;;15.27;4.18;;;;;;;25.07;41.14;98815.50;4461007;32;20115;-69
2023/06/01 09:54:49;;;;;;;4.20;2.90;;;;;;;25.32;43.94;98818.81;4459532;32;20120;-69
2023/06/01 09:57:25;;;;;;;10.52;3.15;;;;;;;25.50;45.53;98814.41;4461747;32;20088;-70
2023/06/01 09:59:52;;;;;;;6.62;3.03;;;;;;;25.56;43.81;98810.00;4457403;32;85294;-70
2023/06/01 10:02:22;;;;;;;7.40;2.92;;;;;;;25.57;43.16;98809.75;4465485;32;20155;-69
2023/06/01 10:04:53;;;;;;;8.45;3.08;;;;;;;25.43;42.40;98811.03;4466412;32;20097;-68
2023/06/01 10:07:22;;;;;;;5.68;2.83;;;;;;;25.82;49.60;98806.78;4468689;32;20072;-70
2023/06/01 10:09:52;;;;;;;8.98;3.03;;;;;;;26.06;47.52;98800.59;4468471;32;20405;-70
2023/06/01 10:12:19;;;;;;;5.68;2.80;;;;;;;26.21;50.21;98804.41;4453509;32;20163;-71
2023/06/01 10:14:47;;;;;;;6.47;2.95;;;;;;;26.26;45.92;98800.19;4468858;32;20116;-68
2023/06/01 10:17:16;;;;;;;4.07;2.90;;;;;;;26.26;47.00;98792.94;4483884;32;20805;-70
2023/06/01 10:19:44;;;;;;;5.60;2.37;;;;;;;26.26;42.66;98786.75;4470534;31;20470;-69
2023/06/01 10:22:12;;;;;;;9.02;2.83;;;;;;;26.36;47.06;98786.97;4467540;32;20119;-70
2023/06/01 10:24:41;;;;;;;5.90;2.80;;;;;;;26.38;44.95;98782.97;4464774;32;20150;-71
2023/06/01 10:27:20;;;;;;;30.08;4.18;;;;;;;26.42;47.02;98787.84;4466930;32;20112;-69
2023/06/01 10:29:48;;;;;;;4.53;2.47;;;;;;;26.28;48.65;98782.75;4467629;32;20108;-69
2023/06/01 10:32:37;;;;;;;7.60;2.70;;;;;;;26.18;40.83;98777.22;4467675;32;20084;-69
2023/06/01 10:35:05;;;;;;;4.62;2.58;;;;;;;26.53;47.38;98773.56;4467489;32;20739;-69
2023/06/01 10:37:33;;;;;;;11.20;2.72;;;;;;;26.69;41.86;98766.59;4466655;32;20142;-68
2023/06/01 10:40:30;;;;;;;6.62;3.00;;;;;;;26.38;42.51;98763.34;4471002;32;20105;-69
2023/06/01 10:42:57;;;;;;;9.50;3.10;;;;;;;26.37;41.18;98770.62;4434029;32;20275;-68
2023/06/01 10:45:33;;;;;;;9.50;3.53;;;;;;;26.42;42.77;98769.06;4434209;32;20879;-68
2023/06/01 10:48:02;;;;;;;5.65;2.58;;;;;;;26.50;38.79;98769.47;4421186;32;20097;-68
2023/06/01 10:50:29;;;;;;;4.53;2.92;;;;;;;26.56;42.85;98762.34;4433330;32;20129;-67
2023/06/01 10:53:23;;;;;;;4.57;3.17;;;;;;;26.66;49.17;98764.38;4433247;32;20105;-68
2023/06/01 10:56:23;;;;;;;3.90;3.00;;;;;;;26.84;44.92;98758.00;4427446;32;20093;-68
2023/06/01 10:59:03;;;;;;;4.78;2.87;;;;;;;26.77;42.96;98760.00;4421130;32;20123;-69
2023/06/01 11:01:45;;;;;;;4.28;2.80;;;;;;;26.63;39.99;98756.81;4427214;32;20627;-69
2023/06/01 11:04:13;;;;;;;5.60;2.58;;;;;;;26.76;41.76;98753.03;4430558;32;20085;-68
2023/06/01 11:06:45;;;;;;;6.50;3.28;;;;;;;26.80;40.26;98754.97;4425787;32;20175;-68
2023/06/01 11:09:15;;;;;;;17.15;2.85;;;;;;;26.82;39.81;98747.47;4425934;32;20135;-67
2023/06/01 11:11:50;;;;;;;7.05;2.75;;;;;;;26.69;39.45;98750.47;4427085;32;20308;-68
2023/06/01 11:14:21;;;;;;;5.97;2.83;;;;;;;26.81;43.07;98742.34;4424669;32;20106;-68
2023/06/01 11:16:50;;;;;;;24.63;2.95;;;;;;;27.15;41.36;98740.47;4426347;32;20239;-67
2023/06/01 11:19:26;;;;;;;6.45;2.90;;;;;;;27.33;48.62;98736.72;4440454;32;20112;-69
2023/06/01 11:22:03;;;;;;;5.03;3.15;;;;;;;27.48;41.58;98737.97;4462087;32;20488;-68
2023/06/01 11:24:33;;;;;;;5.47;3.47;;;;;;;27.37;40.97;98735.16;4463659;32;20194;-68
2023/06/01 11:27:09;;;;;;;5.97;3.30;;;;;;;27.43;40.29;98730.66;4463637;32;20097;-68
2023/06/01 11:29:37;;;;;;;7.85;3.58;;;;;;;26.65;37.43;98728.63;4464451;32;20130;-68
2023/06/01 11:32:05;;;;;;;5.32;3.30;;;;;;;26.96;39.70;98734.53;4464773;32;20152;-68
2023/06/01 11:34:37;;;;;;;7.20;3.53;;;;;;;27.34;38.69;98719.50;4462660;32;20149;-68
2023/06/01 11:37:06;;;;;;;6.70;3.92;;;;;;;27.47;40.82;98709.47;4470840;32;20115;-68
2023/06/01 11:39:34;;;;;;;5.70;3.45;;;;;;;27.69;39.04;98714.84;4469051;32;20127;-68
2023/06/01 11:42:06;;;;;;;7.10;3.10;;;;;;;27.19;38.75;98713.87;4469522;32;20153;-69